createdAt,value
2022-12-11T00:00:26.854Z,-0.31
2022-12-11T00:02:55.326Z,-0.36
2022-12-11T00:05:22.233Z,-0.39
2022-12-11T00:07:49.262Z,-0.37
2022-12-11T00:10:16.285Z,-0.44
2022-12-11T00:12:43.215Z,-0.46
2022-12-11T00:15:12.184Z,-0.46
2022-12-11T00:17:39.416Z,-0.50
2022-12-11T00:20:06.991Z,-0.51
2022-12-11T00:22:34.391Z,-0.64
2022-12-11T00:25:01.325Z,-0.59
2022-12-11T00:27:28.579Z,-0.50
2022-12-11T00:29:55.649Z,-0.59
2022-12-11T00:32:22.617Z,-0.88
2022-12-11T00:34:49.655Z,-0.71
2022-12-11T00:37:16.686Z,-0.67
2022-12-11T00:39:43.724Z,-0.66
2022-12-11T00:42:10.698Z,-0.66
2022-12-11T00:44:37.836Z,-0.70
2022-12-11T00:47:04.779Z,-0.68
2022-12-11T00:49:31.828Z,-0.74
2022-12-11T00:51:58.849Z,-0.74
2022-12-11T00:54:25.823Z,-0.73
2022-12-11T00:56:52.759Z,-0.78
2022-12-11T00:59:19.728Z,-0.78
2022-12-11T01:01:46.686Z,-0.71
2022-12-11T01:04:13.638Z,-0.69
2022-12-11T01:06:40.688Z,-0.72
2022-12-11T01:09:25.942Z,-0.71
2022-12-11T01:11:52.984Z,-0.78
2022-12-11T01:14:20.294Z,-0.74
2022-12-11T01:16:47.331Z,-0.93
2022-12-11T01:19:14.334Z,-0.74
2022-12-11T01:21:41.691Z,-0.71
2022-12-11T01:24:08.688Z,-0.76
2022-12-11T01:26:36.273Z,-0.77
2022-12-11T01:29:03.782Z,-0.78
2022-12-11T01:31:30.765Z,-0.78
2022-12-11T01:33:57.649Z,-0.80
2022-12-11T01:36:24.891Z,-0.77
2022-12-11T01:38:53.823Z,-0.81
2022-12-11T01:41:21.447Z,-0.84
2022-12-11T01:44:07.518Z,-0.79
2022-12-11T01:46:36.536Z,-0.77
2022-12-11T01:49:07.690Z,-0.75
2022-12-11T01:51:40.230Z,-0.79
2022-12-11T01:54:11.553Z,-0.75
2022-12-11T01:56:42.474Z,-0.70
2022-12-11T01:59:10.438Z,-0.77
2022-12-11T02:01:43.096Z,-0.71
2022-12-11T02:04:11.614Z,-0.73
2022-12-11T02:07:00.529Z,-1.00
2022-12-11T02:09:50.867Z,-0.75
2022-12-11T02:12:40.605Z,-0.83
2022-12-11T02:15:42.651Z,-0.78
2022-12-11T02:18:30.476Z,-0.86
2022-12-11T02:21:45.766Z,-0.87
2022-12-11T02:24:46.774Z,-0.84
2022-12-11T02:27:58.236Z,-0.91
2022-12-11T02:30:26.065Z,-0.88
2022-12-11T02:32:56.753Z,-0.93
2022-12-11T02:35:33.765Z,-0.94
2022-12-11T02:38:10.848Z,-0.97
2022-12-11T02:40:41.608Z,-1.00
2022-12-11T02:43:12.373Z,-1.03
2022-12-11T02:45:41.821Z,-1.02
2022-12-11T02:48:11.551Z,-1.06
2022-12-11T02:50:43.355Z,-1.07
2022-12-11T02:53:13.558Z,-1.02
2022-12-11T02:55:47.259Z,-1.02
2022-12-11T02:58:24.400Z,-1.00
2022-12-11T03:00:51.693Z,-1.06
2022-12-11T03:03:19.119Z,-0.99
2022-12-11T03:05:46.595Z,-1.07
2022-12-11T03:08:19.037Z,-1.03
2022-12-11T03:10:46.597Z,-1.01
2022-12-11T03:13:16.215Z,-1.00
2022-12-11T03:16:25.025Z,-0.97
2022-12-11T03:19:23.103Z,-1.04
2022-12-11T03:22:23.157Z,-1.04
2022-12-11T03:25:01.350Z,-1.01
2022-12-11T03:27:39.799Z,-1.04
2022-12-11T03:30:14.581Z,-0.98
2022-12-11T03:32:53.679Z,-1.04
2022-12-11T03:35:40.702Z,-1.04
2022-12-11T03:38:19.061Z,-1.10
2022-12-11T03:40:49.207Z,-1.15
2022-12-11T03:43:18.391Z,-1.14
2022-12-11T03:45:49.410Z,-1.21
2022-12-11T03:48:17.799Z,-1.15
2022-12-11T03:50:48.112Z,-1.13
2022-12-11T03:53:16.442Z,-1.12
2022-12-11T03:55:43.876Z,-1.15
2022-12-11T03:58:11.059Z,-1.14
2022-12-11T04:00:38.667Z,-1.14
2022-12-11T04:03:15.009Z,-1.13
2022-12-11T04:05:44.827Z,-1.18
2022-12-11T04:08:11.950Z,-1.17
2022-12-11T04:10:41.236Z,-1.19
2022-12-11T04:13:09.242Z,-1.18
2022-12-11T04:15:37.671Z,-1.19
2022-12-11T04:18:24.224Z,-1.19
2022-12-11T04:21:13.156Z,-1.21
2022-12-11T04:23:58.432Z,-1.19
2022-12-11T04:26:25.564Z,-1.21
2022-12-11T04:28:52.452Z,-1.23
2022-12-11T04:31:22.402Z,-1.19
2022-12-11T04:33:49.981Z,-1.19
2022-12-11T04:36:17.340Z,-1.24
2022-12-11T04:38:44.227Z,-1.24
2022-12-11T04:41:13.880Z,-1.27
2022-12-11T04:43:41.434Z,-1.24
2022-12-11T04:46:11.909Z,-1.25
2022-12-11T04:48:39.782Z,-1.25
2022-12-11T04:51:07.545Z,-1.31
2022-12-11T04:53:35.423Z,-1.34
2022-12-11T04:56:05.967Z,-1.36
2022-12-11T04:58:33.130Z,-1.38
2022-12-11T05:01:00.057Z,-1.63
2022-12-11T05:03:27.189Z,-1.47
2022-12-11T05:05:54.362Z,-1.47
2022-12-11T05:08:22.327Z,-1.46
2022-12-11T05:11:04.162Z,-1.48
2022-12-11T05:13:31.552Z,-1.49
2022-12-11T05:15:59.498Z,-1.50
2022-12-11T05:18:26.985Z,-1.47
2022-12-11T05:21:06.026Z,-1.48
2022-12-11T05:23:33.549Z,-1.49
2022-12-11T05:26:03.110Z,-1.46
2022-12-11T05:28:34.018Z,-1.50
2022-12-11T05:31:04.826Z,-1.49
2022-12-11T05:33:32.141Z,-1.58
2022-12-11T05:35:59.373Z,-1.45
2022-12-11T05:38:26.743Z,-1.49
2022-12-11T05:41:04.450Z,-1.49
2022-12-11T05:43:33.898Z,-1.51
2022-12-11T05:46:11.579Z,-1.55
2022-12-11T05:48:39.372Z,-1.53
2022-12-11T05:51:07.336Z,-1.54
2022-12-11T05:53:35.850Z,-1.57
2022-12-11T05:56:08.415Z,-1.58
2022-12-11T05:58:36.158Z,-1.55
2022-12-11T06:01:08.037Z,-1.56
2022-12-11T06:03:35.034Z,-1.63
2022-12-11T06:06:03.488Z,-1.63
2022-12-11T06:08:30.796Z,-1.59
2022-12-11T06:10:57.972Z,-1.58
2022-12-11T06:13:25.115Z,-1.56
2022-12-11T06:15:52.161Z,-1.54
2022-12-11T06:18:19.174Z,-1.51
2022-12-11T06:20:46.231Z,-1.53
2022-12-11T06:23:13.260Z,-1.57
2022-12-11T06:25:42.075Z,-1.60
2022-12-11T06:28:09.140Z,-1.63
2022-12-11T06:30:39.285Z,-1.62
2022-12-11T06:33:07.530Z,-1.64
2022-12-11T06:35:40.299Z,-1.67
2022-12-11T06:38:09.409Z,-1.70
2022-12-11T06:40:36.390Z,-1.69
2022-12-11T06:43:03.770Z,-1.66
2022-12-11T06:45:31.091Z,-1.62
2022-12-11T06:47:59.156Z,-1.66
2022-12-11T06:50:26.473Z,-1.64
2022-12-11T06:52:53.461Z,-1.70
2022-12-11T06:55:20.484Z,-1.76
2022-12-11T06:57:47.333Z,-1.70
2022-12-11T07:00:15.040Z,-1.68
2022-12-11T07:02:42.070Z,-1.66
2022-12-11T07:05:09.735Z,-1.63
2022-12-11T07:07:36.858Z,-1.68
2022-12-11T07:10:08.243Z,-1.66
2022-12-11T07:12:36.672Z,-1.64
2022-12-11T07:15:04.963Z,-1.68
2022-12-11T07:17:32.488Z,-1.64
2022-12-11T07:19:59.472Z,-1.70
2022-12-11T07:22:26.400Z,-1.58
2022-12-11T07:24:53.348Z,-1.62
2022-12-11T07:27:20.312Z,-1.61
2022-12-11T07:29:47.237Z,-1.65
2022-12-11T07:32:14.760Z,-1.71
2022-12-11T07:34:41.794Z,-1.68
2022-12-11T07:37:09.275Z,-1.80
2022-12-11T07:39:36.174Z,-1.71
2022-12-11T07:42:03.098Z,-1.81
2022-12-11T07:44:29.962Z,-1.79
2022-12-11T07:46:56.889Z,-1.75
2022-12-11T07:49:23.912Z,-1.93
2022-12-11T07:51:50.876Z,-1.75
2022-12-11T07:54:18.036Z,-1.71
2022-12-11T07:56:49.773Z,-1.79
2022-12-11T07:59:19.971Z,-1.86
2022-12-11T08:01:47.041Z,-1.85
2022-12-11T08:04:16.073Z,-1.71
2022-12-11T08:06:43.923Z,-1.75
2022-12-11T08:09:20.381Z,-1.81
2022-12-11T08:11:50.819Z,-1.76
2022-12-11T08:14:18.526Z,-1.78
2022-12-11T08:16:45.643Z,-1.80
2022-12-11T08:19:13.360Z,-1.80
2022-12-11T08:21:40.800Z,-1.90
2022-12-11T08:24:08.606Z,-1.99
2022-12-11T08:26:35.620Z,-1.98
2022-12-11T08:29:02.991Z,-2.03
2022-12-11T08:31:30.361Z,-2.00
2022-12-11T08:33:57.981Z,-2.03
2022-12-11T08:36:25.337Z,-2.08
2022-12-11T08:38:52.671Z,-2.04
2022-12-11T08:41:25.586Z,-2.01
2022-12-11T08:43:55.623Z,-1.96
2022-12-11T08:46:24.801Z,-1.97
2022-12-11T08:48:52.258Z,-2.09
2022-12-11T08:51:23.010Z,-2.11
2022-12-11T08:53:51.376Z,-2.05
2022-12-11T08:56:20.816Z,-2.03
2022-12-11T08:58:48.116Z,-2.04
2022-12-11T09:01:18.549Z,-2.00
2022-12-11T09:03:45.521Z,-2.06
2022-12-11T09:06:15.423Z,-2.00
2022-12-11T09:08:48.589Z,-1.99
2022-12-11T09:11:21.917Z,-2.02
2022-12-11T09:13:49.466Z,-2.10
2022-12-11T09:16:19.658Z,-2.11
2022-12-11T09:18:48.757Z,-2.05
2022-12-11T09:21:19.310Z,-2.05
2022-12-11T09:23:47.468Z,-1.99
2022-12-11T09:26:17.532Z,-2.09
2022-12-11T09:28:46.917Z,-1.99
2022-12-11T09:31:23.824Z,-2.04
2022-12-11T09:33:54.222Z,-1.95
2022-12-11T09:36:21.150Z,-2.09
2022-12-11T09:38:48.309Z,-1.98
2022-12-11T09:41:18.089Z,-2.07
2022-12-11T09:43:51.067Z,-1.98
2022-12-11T09:46:18.341Z,-2.22
2022-12-11T09:48:48.516Z,-1.90
2022-12-11T09:51:37.703Z,-1.86
2022-12-11T09:54:05.300Z,-1.75
2022-12-11T09:56:37.343Z,-1.92
2022-12-11T09:59:29.095Z,-1.88
2022-12-11T10:01:55.949Z,-2.03
2022-12-11T10:04:22.794Z,-1.77
2022-12-11T10:07:07.222Z,-1.89
2022-12-11T10:09:46.265Z,-1.70
2022-12-11T10:12:24.070Z,-1.54
2022-12-11T10:15:35.666Z,-1.87
2022-12-11T10:18:07.342Z,-1.96
2022-12-11T10:20:39.569Z,-1.91
2022-12-11T10:23:09.565Z,-1.99
2022-12-11T10:25:41.056Z,-2.07
2022-12-11T10:28:15.095Z,-1.98
2022-12-11T10:30:59.035Z,-1.93
2022-12-11T10:33:32.469Z,-1.94
2022-12-11T10:35:59.698Z,-2.03
2022-12-11T10:38:38.557Z,-2.00
2022-12-11T10:41:15.701Z,-2.02
2022-12-11T10:43:49.426Z,-2.15
2022-12-11T10:46:26.969Z,-1.92
2022-12-11T10:48:58.431Z,-1.96
2022-12-11T10:51:33.220Z,-1.97
2022-12-11T10:54:26.256Z,-1.91
2022-12-11T10:56:54.332Z,-1.96
2022-12-11T10:59:49.871Z,-1.88
2022-12-11T11:02:32.907Z,-1.86
2022-12-11T11:05:01.992Z,-1.95
2022-12-11T11:07:32.154Z,-2.13
2022-12-11T11:10:12.659Z,-2.07
2022-12-11T11:12:42.997Z,-1.99
2022-12-11T11:15:16.857Z,-2.07
2022-12-11T11:17:54.990Z,-1.98
2022-12-11T11:20:28.626Z,-1.94
2022-12-11T11:22:59.529Z,-2.07
2022-12-11T11:25:29.537Z,-1.92
2022-12-11T11:28:07.680Z,-1.86
2022-12-11T11:30:39.252Z,-1.87
2022-12-11T11:33:13.870Z,-1.88
2022-12-11T11:35:53.052Z,-1.84
2022-12-11T11:38:24.560Z,-2.13
2022-12-11T11:41:18.895Z,-2.05
2022-12-11T11:44:03.601Z,-2.17
2022-12-11T11:46:38.509Z,-2.17
2022-12-11T11:49:46.874Z,-2.21
2022-12-11T11:52:53.283Z,-2.21
2022-12-11T11:55:53.809Z,-2.36
2022-12-11T11:58:33.637Z,-2.41
2022-12-11T12:01:00.942Z,-2.31
2022-12-11T12:03:30.183Z,-2.45
2022-12-11T12:06:18.359Z,-2.40
2022-12-11T12:09:03.660Z,-2.30
2022-12-11T12:11:54.321Z,-2.30
2022-12-11T12:14:54.208Z,-2.42
2022-12-11T12:17:43.116Z,-2.43
2022-12-11T12:20:17.837Z,-2.36
2022-12-11T12:23:22.049Z,-2.34
2022-12-11T12:25:58.006Z,-2.44
2022-12-11T12:28:46.012Z,-2.41
2022-12-11T12:31:16.342Z,-2.51
2022-12-11T12:34:02.246Z,-2.60
2022-12-11T12:36:50.802Z,-2.60
2022-12-11T12:39:42.636Z,-2.66
2022-12-11T12:42:31.515Z,-2.64
2022-12-11T12:45:28.031Z,-2.61
2022-12-11T12:47:55.090Z,-2.57
2022-12-11T12:50:27.186Z,-2.53
2022-12-11T12:52:56.351Z,-2.59
2022-12-11T12:55:29.959Z,-2.59
2022-12-11T12:58:02.227Z,-2.56
2022-12-11T13:00:42.233Z,-2.64
2022-12-11T13:03:20.589Z,-2.63
2022-12-11T13:06:25.298Z,-2.64
2022-12-11T13:08:52.874Z,-2.58
2022-12-11T13:11:21.910Z,-2.66
2022-12-11T13:14:04.577Z,-2.61
2022-12-11T13:16:41.957Z,-2.66
2022-12-11T13:19:23.971Z,-2.71
2022-12-11T13:22:12.717Z,-2.59
2022-12-11T13:24:53.514Z,-2.63
2022-12-11T13:27:30.814Z,-2.71
2022-12-11T13:30:23.898Z,-2.61
2022-12-11T13:33:14.530Z,-2.65
2022-12-11T13:35:43.343Z,-2.70
2022-12-11T13:38:20.364Z,-2.59
2022-12-11T13:40:53.390Z,-2.60
2022-12-11T13:43:27.610Z,-2.65
2022-12-11T13:46:04.249Z,-2.75
2022-12-11T13:48:54.258Z,-2.81
2022-12-11T13:51:26.758Z,-2.81
2022-12-11T13:54:18.195Z,-2.89
2022-12-11T13:57:21.595Z,-2.85
2022-12-11T13:59:56.307Z,-2.91
2022-12-11T14:02:29.731Z,-2.88
2022-12-11T14:05:01.280Z,-2.81
2022-12-11T14:07:42.632Z,-2.83
2022-12-11T14:10:24.312Z,-2.95
2022-12-11T14:12:54.128Z,-2.95
2022-12-11T14:15:21.936Z,-2.92
2022-12-11T14:17:51.949Z,-2.88
2022-12-11T14:20:31.232Z,-2.91
2022-12-11T14:23:16.411Z,-2.88
2022-12-11T14:25:51.838Z,-2.88
2022-12-11T14:28:18.889Z,-2.97
2022-12-11T14:30:50.097Z,-3.01
2022-12-11T14:33:19.127Z,-3.03
2022-12-11T14:35:47.499Z,-2.98
2022-12-11T14:38:20.377Z,-3.00
2022-12-11T14:40:52.040Z,-3.01
2022-12-11T14:43:28.077Z,-3.04
2022-12-11T14:45:59.634Z,-3.07
2022-12-11T14:48:35.722Z,-3.04
2022-12-11T14:51:07.673Z,-2.96
2022-12-11T14:53:44.256Z,-2.97
2022-12-11T14:56:18.199Z,-3.00
2022-12-11T14:58:56.141Z,-2.94
2022-12-11T15:01:32.821Z,-3.06
2022-12-11T15:04:22.403Z,-3.03
2022-12-11T15:06:51.814Z,-3.04
2022-12-11T15:09:37.600Z,-3.07
2022-12-11T15:12:14.515Z,-3.07
2022-12-11T15:14:53.408Z,-3.05
2022-12-11T15:17:23.049Z,-2.95
2022-12-11T15:19:57.302Z,-3.02
2022-12-11T15:22:29.092Z,-3.08
2022-12-11T15:24:57.469Z,-3.04
2022-12-11T15:27:35.845Z,-3.13
2022-12-11T15:30:14.922Z,-3.16
2022-12-11T15:32:42.015Z,-3.07
2022-12-11T15:35:26.628Z,-3.04
2022-12-11T15:37:55.234Z,-3.00
2022-12-11T15:40:22.953Z,-3.05
2022-12-11T15:42:51.268Z,-3.08
2022-12-11T15:45:21.053Z,-3.12
2022-12-11T15:47:50.164Z,-3.19
2022-12-11T15:50:19.690Z,-3.16
2022-12-11T15:52:46.957Z,-3.25
2022-12-11T15:55:14.734Z,-3.41
2022-12-11T15:57:54.373Z,-3.28
2022-12-11T16:00:22.074Z,-3.33
2022-12-11T16:02:49.019Z,-3.30
2022-12-11T16:05:16.380Z,-3.42
2022-12-11T16:07:43.336Z,-3.52
2022-12-11T16:10:16.314Z,-3.42
2022-12-11T16:12:43.787Z,-3.41
2022-12-11T16:15:15.306Z,-3.48
2022-12-11T16:17:44.556Z,-3.41
2022-12-11T16:20:13.711Z,-3.54
2022-12-11T16:22:41.078Z,-3.48
2022-12-11T16:25:08.350Z,-3.48
2022-12-11T16:27:35.427Z,-3.49
2022-12-11T16:30:02.679Z,-3.48
2022-12-11T16:32:29.824Z,-3.40
2022-12-11T16:35:00.938Z,-3.38
2022-12-11T16:37:28.472Z,-3.46
2022-12-11T16:39:55.533Z,-3.41
2022-12-11T16:42:22.528Z,-3.47
2022-12-11T16:44:49.495Z,-3.44
2022-12-11T16:47:16.438Z,-3.41
2022-12-11T16:49:43.650Z,-3.43
2022-12-11T16:52:16.442Z,-3.53
2022-12-11T16:54:47.382Z,-3.43
2022-12-11T16:57:14.280Z,-3.40
2022-12-11T16:59:41.181Z,-3.40
2022-12-11T17:02:08.117Z,-3.50
2022-12-11T17:04:35.114Z,-3.41
2022-12-11T17:07:06.492Z,-3.41
2022-12-11T17:09:33.609Z,-3.40
2022-12-11T17:12:03.216Z,-3.47
2022-12-11T17:14:30.112Z,-3.34
2022-12-11T17:16:57.333Z,-3.31
2022-12-11T17:19:24.411Z,-3.19
2022-12-11T17:21:52.103Z,-3.54
2022-12-11T17:24:19.048Z,-3.20
2022-12-11T17:26:46.614Z,-3.25
2022-12-11T17:29:13.967Z,-3.27
2022-12-11T17:31:42.448Z,-3.32
2022-12-11T17:34:09.381Z,-3.40
2022-12-11T17:36:36.306Z,-3.59
2022-12-11T17:39:03.329Z,-3.49
2022-12-11T17:41:30.299Z,-3.53
2022-12-11T17:43:58.467Z,-3.56
2022-12-11T17:46:25.600Z,-3.53
2022-12-11T17:48:52.597Z,-3.50
2022-12-11T17:51:24.697Z,-3.52
2022-12-11T17:53:52.444Z,-3.54
2022-12-11T17:56:19.380Z,-3.45
2022-12-11T17:58:46.349Z,-3.40
2022-12-11T18:01:13.884Z,-3.37
2022-12-11T18:03:41.814Z,-3.57
2022-12-11T18:06:12.976Z,-3.40
2022-12-11T18:08:40.511Z,-3.31
2022-12-11T18:11:13.344Z,-3.28
2022-12-11T18:13:40.894Z,-3.29
2022-12-11T18:16:18.476Z,-3.41
2022-12-11T18:18:47.530Z,-3.41
2022-12-11T18:21:17.411Z,-3.39
2022-12-11T18:23:45.457Z,-3.39
2022-12-11T18:26:14.798Z,-3.34
2022-12-11T18:28:42.944Z,-3.39
2022-12-11T18:31:10.849Z,-3.34
2022-12-11T18:33:39.378Z,-3.37
2022-12-11T18:36:07.390Z,-3.38
2022-12-11T18:38:35.521Z,-3.39
2022-12-11T18:41:04.559Z,-3.40
2022-12-11T18:43:31.686Z,-3.71
2022-12-11T18:45:58.661Z,-3.52
2022-12-11T18:48:27.730Z,-3.46
2022-12-11T18:50:54.753Z,-3.62
2022-12-11T18:53:24.816Z,-3.55
2022-12-11T18:55:55.813Z,-3.63
2022-12-11T18:58:25.689Z,-3.56
2022-12-11T19:00:52.660Z,-3.55
2022-12-11T19:03:19.637Z,-3.57
2022-12-11T19:05:46.563Z,-3.62
2022-12-11T19:08:14.205Z,-3.44
2022-12-11T19:10:47.143Z,-3.40
2022-12-11T19:13:14.250Z,-3.43
2022-12-11T19:15:42.921Z,-3.52
2022-12-11T19:18:10.507Z,-3.74
2022-12-11T19:20:49.129Z,-3.69
2022-12-11T19:23:18.004Z,-3.67
2022-12-11T19:25:46.622Z,-3.61
2022-12-11T19:28:14.270Z,-3.62
2022-12-11T19:30:52.069Z,-3.69
2022-12-11T19:33:18.992Z,-3.80
2022-12-11T19:35:46.007Z,-3.86
2022-12-11T19:38:13.201Z,-3.72
2022-12-11T19:40:44.904Z,-3.70
2022-12-11T19:43:12.205Z,-3.76
2022-12-11T19:45:39.267Z,-3.78
2022-12-11T19:48:06.417Z,-3.80
2022-12-11T19:50:36.497Z,-3.89
2022-12-11T19:53:04.539Z,-3.86
2022-12-11T19:55:31.557Z,-3.87
2022-12-11T19:57:58.504Z,-3.87
2022-12-11T20:00:25.726Z,-3.91
2022-12-11T20:02:52.634Z,-3.86
2022-12-11T20:05:19.572Z,-3.81
2022-12-11T20:07:46.658Z,-3.78
2022-12-11T20:10:13.676Z,-3.79
2022-12-11T20:12:40.633Z,-3.87
2022-12-11T20:15:08.038Z,-3.80
2022-12-11T20:17:36.961Z,-3.73
2022-12-11T20:20:04.100Z,-3.70
2022-12-11T20:22:31.158Z,-3.79
2022-12-11T20:24:58.052Z,-3.68
2022-12-11T20:27:26.339Z,-3.74
2022-12-11T20:29:53.366Z,-3.61
2022-12-11T20:32:21.447Z,-3.54
2022-12-11T20:34:48.586Z,-3.64
2022-12-11T20:37:15.530Z,-3.58
2022-12-11T20:39:42.445Z,-3.58
2022-12-11T20:42:10.170Z,-3.69
2022-12-11T20:44:37.287Z,-3.68
2022-12-11T20:47:04.427Z,-3.62
2022-12-11T20:49:31.414Z,-3.56
2022-12-11T20:51:59.740Z,-3.58
2022-12-11T20:54:27.638Z,-3.55
2022-12-11T20:56:54.630Z,-3.73
2022-12-11T20:59:21.617Z,-3.66
2022-12-11T21:01:50.030Z,-3.62
2022-12-11T21:04:16.992Z,-3.57
2022-12-11T21:06:44.229Z,-3.54
2022-12-11T21:09:19.240Z,-3.52
2022-12-11T21:11:46.458Z,-3.66
2022-12-11T21:14:14.258Z,-3.94
2022-12-11T21:16:41.620Z,-3.71
2022-12-11T21:19:12.460Z,-3.69
2022-12-11T21:21:45.428Z,-3.65
2022-12-11T21:24:19.027Z,-3.69
2022-12-11T21:26:47.132Z,-3.67
2022-12-11T21:29:14.571Z,-3.67
2022-12-11T21:31:42.167Z,-3.65
2022-12-11T21:34:09.239Z,-3.83
2022-12-11T21:36:36.239Z,-3.74
2022-12-11T21:39:04.593Z,-3.68
2022-12-11T21:41:31.580Z,-3.62
2022-12-11T21:46:45.493Z,-3.58
2022-12-11T21:49:12.532Z,-3.54
2022-12-11T21:51:46.792Z,-3.62
2022-12-11T21:54:17.604Z,-3.70
2022-12-11T21:56:45.511Z,-3.51
2022-12-11T21:59:12.601Z,-3.47
2022-12-11T22:01:42.673Z,-3.46
2022-12-11T22:04:11.480Z,-3.48
2022-12-11T22:06:40.168Z,-3.47
2022-12-11T22:09:07.057Z,-3.48
2022-12-11T22:11:35.682Z,-3.46
2022-12-11T22:14:03.012Z,-3.46
2022-12-11T22:16:30.741Z,-3.46
2022-12-11T22:18:57.684Z,-3.46
2022-12-11T22:21:24.631Z,-3.47
2022-12-11T22:23:51.591Z,-3.48
2022-12-11T22:26:23.067Z,-3.49
2022-12-11T22:28:51.031Z,-3.49
2022-12-11T22:31:20.764Z,-3.47
2022-12-11T22:33:50.340Z,-3.51
2022-12-11T22:36:20.936Z,-3.50
2022-12-11T22:38:48.122Z,-3.51
2022-12-11T22:41:22.757Z,-3.50
2022-12-11T22:43:50.070Z,-3.52
2022-12-11T22:46:19.280Z,-3.49
2022-12-11T22:48:46.415Z,-3.50
2022-12-11T22:51:13.637Z,-3.50
2022-12-11T22:53:40.628Z,-3.48
2022-12-11T22:56:10.360Z,-3.46
2022-12-11T22:58:37.452Z,-3.44
2022-12-11T23:01:10.896Z,-3.41
2022-12-11T23:03:39.167Z,-3.62
2022-12-11T23:06:11.942Z,-3.41
2022-12-11T23:08:40.015Z,-3.41
2022-12-11T23:11:31.999Z,-3.36
2022-12-11T23:13:58.940Z,-3.36
2022-12-11T23:16:27.256Z,-3.35
2022-12-11T23:18:55.656Z,-3.34
2022-12-11T23:21:23.568Z,-3.37
2022-12-11T23:23:51.055Z,-3.34
2022-12-11T23:26:19.559Z,-3.35
2022-12-11T23:28:47.725Z,-3.34
2022-12-11T23:31:16.167Z,-3.34
2022-12-11T23:33:43.153Z,-3.56
2022-12-11T23:36:10.703Z,-3.37
2022-12-11T23:38:38.658Z,-3.30
2022-12-11T23:41:07.038Z,-3.30
2022-12-11T23:43:37.874Z,-3.29
2022-12-11T23:46:07.725Z,-3.28
2022-12-11T23:48:34.835Z,-3.29
2022-12-11T23:51:03.586Z,-3.25
2022-12-11T23:53:30.679Z,-3.24
2022-12-11T23:56:03.460Z,-3.24
2022-12-11T23:58:30.321Z,-3.23
